Página principal
METAR-TAF:

METAR-TAF

Aeroportos :

Nouakchott, Mauritânia

Aeroporto Internacional Nouakchott-Oumtounsy

latitude: 18-18-36N, longitude: 015-58-11W, altura: 3 m

Observação actual do tempo

O boletim foi feito há 36 minutos, às 12:00 UTC
Vento 18 kt de es-sudeste
Temperatura 38°C
Humidade 7%
Pressão 1014 hPa
Visibilidade: 6000 m

METAR: GQNO 151200Z 12018KT 6000 NSC 38/M03 Q1014 NOSIG

Hora: 12:36 (12:36 UTC)

Previsão

O boletim foi feito há 1 hora e 36 minutos, às 11:00 UTC
Previsão válida de 15 às 12 UTC a 16 às 18 UTC
Vento 16 kt de es-sudeste
Visibilidade: 6000 m
Probabilidade 40% :
Temporariamente
de 15 às 12 UTC a 15 às 17 UTC
Visibilidade: 3500 m
Poeira levantada pelo vento
Tornando-se
de 15 às 17 UTC a 15 às 21 UTC
Vento 10 kt de norte

TAF: GQNO 151100Z 1512/1618 12016KT 6000 NSC PROB40 TEMPO 1512/1517 3500 BLDU BECMG 1517/1521 36010KT

Observações e previsões do tempo de mais de 4000 aeroportos (mensagens METAR e TAF).

As estações disponíveis são os pontos amarelos e vermelhos sobre o mapa.

Mova o rato sobre o mapa para ver o nome da estação.

Depois clique no ponto para visualizar as observações e previsões meteorológicas.

Para alterar o mapa : clique nos botões verdes com uma cruz preta para aumentar o zoom; no botão verde com uma pitada de zoom; ou nas setas verdes para mapas adjacentes.


METAR-TAF: